sensor_id;sensor_type;location;lat;lon;timestamp;temperature;humidity
23815;DHT22;12088;53.078;8.720;2022-11-18T00:01:18;5.30;99.90
23815;DHT22;12088;53.078;8.720;2022-11-18T00:03:44;5.20;99.90
23815;DHT22;12088;53.078;8.720;2022-11-18T00:06:13;5.20;99.90
23815;DHT22;12088;53.078;8.720;2022-11-18T00:08:39;5.30;99.90
23815;DHT22;12088;53.078;8.720;2022-11-18T00:11:16;5.20;99.90
23815;DHT22;12088;53.078;8.720;2022-11-18T00:14:00;5.20;99.90
23815;DHT22;12088;53.078;8.720;2022-11-18T00:16:50;5.20;99.90
23815;DHT22;12088;53.078;8.720;2022-11-18T00:19:17;5.20;99.90
23815;DHT22;12088;53.078;8.720;2022-11-18T00:21:42;5.10;99.90
23815;DHT22;12088;53.078;8.720;2022-11-18T00:24:08;5.20;99.90
23815;DHT22;12088;53.078;8.720;2022-11-18T00:26:34;5.20;99.90
23815;DHT22;12088;53.078;8.720;2022-11-18T00:29:00;5.20;99.90
23815;DHT22;12088;53.078;8.720;2022-11-18T00:31:26;5.20;99.90
23815;DHT22;12088;53.078;8.720;2022-11-18T00:33:51;5.20;99.90
23815;DHT22;12088;53.078;8.720;2022-11-18T00:36:17;5.20;99.90
23815;DHT22;12088;53.078;8.720;2022-11-18T00:38:42;5.20;99.90
23815;DHT22;12088;53.078;8.720;2022-11-18T00:41:11;5.10;99.90
23815;DHT22;12088;53.078;8.720;2022-11-18T00:43:36;5.20;99.90
23815;DHT22;12088;53.078;8.720;2022-11-18T00:46:03;5.10;99.90
23815;DHT22;12088;53.078;8.720;2022-11-18T00:48:29;5.20;99.90
23815;DHT22;12088;53.078;8.720;2022-11-18T00:50:57;5.20;99.90
23815;DHT22;12088;53.078;8.720;2022-11-18T00:53:25;5.10;99.90
23815;DHT22;12088;53.078;8.720;2022-11-18T00:55:51;5.20;99.90
23815;DHT22;12088;53.078;8.720;2022-11-18T00:58:17;5.20;99.90
23815;DHT22;12088;53.078;8.720;2022-11-18T01:00:45;5.10;99.90
23815;DHT22;12088;53.078;8.720;2022-11-18T01:03:13;5.10;99.90
23815;DHT22;12088;53.078;8.720;2022-11-18T01:05:39;5.10;99.90
23815;DHT22;12088;53.078;8.720;2022-11-18T01:08:06;5.10;99.90
23815;DHT22;12088;53.078;8.720;2022-11-18T01:10:33;5.10;99.90
23815;DHT22;12088;53.078;8.720;2022-11-18T01:12:59;5.10;99.90
23815;DHT22;12088;53.078;8.720;2022-11-18T01:15:45;5.10;99.90
23815;DHT22;12088;53.078;8.720;2022-11-18T01:18:10;5.10;99.90
23815;DHT22;12088;53.078;8.720;2022-11-18T01:20:36;5.20;99.90
23815;DHT22;12088;53.078;8.720;2022-11-18T01:23:02;5.10;99.90
23815;DHT22;12088;53.078;8.720;2022-11-18T01:25:28;5.10;99.90
23815;DHT22;12088;53.078;8.720;2022-11-18T01:27:54;5.10;99.90
23815;DHT22;12088;53.078;8.720;2022-11-18T01:30:20;5.10;99.90
23815;DHT22;12088;53.078;8.720;2022-11-18T01:32:45;5.10;99.90
23815;DHT22;12088;53.078;8.720;2022-11-18T01:35:11;5.10;99.90
23815;DHT22;12088;53.078;8.720;2022-11-18T01:37:37;5.00;99.90
23815;DHT22;12088;53.078;8.720;2022-11-18T01:40:04;5.10;99.90
23815;DHT22;12088;53.078;8.720;2022-11-18T01:42:30;5.00;99.90
23815;DHT22;12088;53.078;8.720;2022-11-18T01:47:46;5.10;99.90
23815;DHT22;12088;53.078;8.720;2022-11-18T01:50:15;5.00;99.90
23815;DHT22;12088;53.078;8.720;2022-11-18T01:52:43;5.00;99.90
23815;DHT22;12088;53.078;8.720;2022-11-18T01:55:15;5.00;99.90
23815;DHT22;12088;53.078;8.720;2022-11-18T01:57:43;5.00;99.90
23815;DHT22;12088;53.078;8.720;2022-11-18T02:00:10;5.00;99.90
23815;DHT22;12088;53.078;8.720;2022-11-18T02:02:37;5.00;99.90
23815;DHT22;12088;53.078;8.720;2022-11-18T02:05:05;5.00;99.90
23815;DHT22;12088;53.078;8.720;2022-11-18T02:07:34;5.00;99.90
23815;DHT22;12088;53.078;8.720;2022-11-18T02:10:03;5.00;99.90
23815;DHT22;12088;53.078;8.720;2022-11-18T02:12:29;5.00;99.90
23815;DHT22;12088;53.078;8.720;2022-11-18T02:14:55;5.00;99.90
23815;DHT22;12088;53.078;8.720;2022-11-18T02:17:55;5.00;99.90
23815;DHT22;12088;53.078;8.720;2022-11-18T02:20:43;5.00;99.90
23815;DHT22;12088;53.078;8.720;2022-11-18T02:26:11;5.00;99.90
23815;DHT22;12088;53.078;8.720;2022-11-18T02:31:54;5.00;99.90
23815;DHT22;12088;53.078;8.720;2022-11-18T02:37:01;5.00;99.90
23815;DHT22;12088;53.078;8.720;2022-11-18T02:39:50;5.00;99.90
23815;DHT22;12088;53.078;8.720;2022-11-18T02:42:18;5.00;99.90
23815;DHT22;12088;53.078;8.720;2022-11-18T02:44:48;4.90;99.90
23815;DHT22;12088;53.078;8.720;2022-11-18T02:47:16;4.90;99.90
23815;DHT22;12088;53.078;8.720;2022-11-18T02:49:47;4.90;99.90
23815;DHT22;12088;53.078;8.720;2022-11-18T02:52:15;4.90;99.90
23815;DHT22;12088;53.078;8.720;2022-11-18T02:54:43;4.80;99.90
23815;DHT22;12088;53.078;8.720;2022-11-18T02:57:12;4.80;99.90
23815;DHT22;12088;53.078;8.720;2022-11-18T02:59:39;4.80;99.90
23815;DHT22;12088;53.078;8.720;2022-11-18T03:02:05;4.80;99.90
23815;DHT22;12088;53.078;8.720;2022-11-18T03:04:31;4.80;99.90
23815;DHT22;12088;53.078;8.720;2022-11-18T03:07:09;4.80;99.90
23815;DHT22;12088;53.078;8.720;2022-11-18T03:09:40;4.80;99.90
23815;DHT22;12088;53.078;8.720;2022-11-18T03:12:25;4.70;99.90
23815;DHT22;12088;53.078;8.720;2022-11-18T03:20:35;4.70;99.90
23815;DHT22;12088;53.078;8.720;2022-11-18T03:23:19;4.70;99.90
23815;DHT22;12088;53.078;8.720;2022-11-18T03:26:04;4.70;99.90
23815;DHT22;12088;53.078;8.720;2022-11-18T03:29:00;4.70;99.90
23815;DHT22;12088;53.078;8.720;2022-11-18T03:31:43;4.70;99.90
23815;DHT22;12088;53.078;8.720;2022-11-18T03:34:20;4.60;99.90
23815;DHT22;12088;53.078;8.720;2022-11-18T03:36:51;4.60;99.90
23815;DHT22;12088;53.078;8.720;2022-11-18T03:39:19;4.60;99.90
23815;DHT22;12088;53.078;8.720;2022-11-18T03:41:52;4.60;99.90
23815;DHT22;12088;53.078;8.720;2022-11-18T03:44:31;4.50;99.90
23815;DHT22;12088;53.078;8.720;2022-11-18T03:47:10;4.50;99.90
23815;DHT22;12088;53.078;8.720;2022-11-18T03:49:44;4.40;99.90
23815;DHT22;12088;53.078;8.720;2022-11-18T03:52:14;4.40;99.90
23815;DHT22;12088;53.078;8.720;2022-11-18T03:54:44;4.40;99.90
23815;DHT22;12088;53.078;8.720;2022-11-18T03:57:33;4.40;99.90
23815;DHT22;12088;53.078;8.720;2022-11-18T04:00:09;4.40;99.90
23815;DHT22;12088;53.078;8.720;2022-11-18T04:02:36;4.40;99.90
23815;DHT22;12088;53.078;8.720;2022-11-18T04:05:04;4.40;99.90
23815;DHT22;12088;53.078;8.720;2022-11-18T04:10:41;4.40;99.90
23815;DHT22;12088;53.078;8.720;2022-11-18T04:13:31;4.40;99.90
23815;DHT22;12088;53.078;8.720;2022-11-18T04:15:57;4.40;99.90
23815;DHT22;12088;53.078;8.720;2022-11-18T04:18:23;4.40;99.90
23815;DHT22;12088;53.078;8.720;2022-11-18T04:20:49;4.40;99.90
23815;DHT22;12088;53.078;8.720;2022-11-18T04:23:14;4.40;99.90
23815;DHT22;12088;53.078;8.720;2022-11-18T04:25:40;4.30;99.90
23815;DHT22;12088;53.078;8.720;2022-11-18T04:28:06;4.30;99.90
23815;DHT22;12088;53.078;8.720;2022-11-18T04:30:31;4.20;99.90
23815;DHT22;12088;53.078;8.720;2022-11-18T04:32:57;4.20;99.90
23815;DHT22;12088;53.078;8.720;2022-11-18T04:35:23;4.20;99.90
23815;DHT22;12088;53.078;8.720;2022-11-18T04:37:49;4.20;99.90
23815;DHT22;12088;53.078;8.720;2022-11-18T04:40:15;4.20;99.90
23815;DHT22;12088;53.078;8.720;2022-11-18T04:42:40;4.20;99.90
23815;DHT22;12088;53.078;8.720;2022-11-18T04:45:07;4.10;99.90
23815;DHT22;12088;53.078;8.720;2022-11-18T04:47:32;4.10;99.90
23815;DHT22;12088;53.078;8.720;2022-11-18T04:49:58;4.10;99.90
23815;DHT22;12088;53.078;8.720;2022-11-18T04:52:23;4.10;99.90
23815;DHT22;12088;53.078;8.720;2022-11-18T04:54:49;4.10;99.90
23815;DHT22;12088;53.078;8.720;2022-11-18T04:57:14;4.10;99.90
23815;DHT22;12088;53.078;8.720;2022-11-18T04:59:40;4.10;99.90
23815;DHT22;12088;53.078;8.720;2022-11-18T05:02:06;4.10;99.90
23815;DHT22;12088;53.078;8.720;2022-11-18T05:04:33;4.00;99.90
23815;DHT22;12088;53.078;8.720;2022-11-18T05:07:00;4.10;99.90
23815;DHT22;12088;53.078;8.720;2022-11-18T05:09:26;4.00;99.90
23815;DHT22;12088;53.078;8.720;2022-11-18T05:11:52;4.00;99.90
23815;DHT22;12088;53.078;8.720;2022-11-18T05:14:36;4.00;99.90
23815;DHT22;12088;53.078;8.720;2022-11-18T05:17:04;4.00;99.90
23815;DHT22;12088;53.078;8.720;2022-11-18T05:19:30;3.90;99.90
23815;DHT22;12088;53.078;8.720;2022-11-18T05:21:55;4.00;99.90
23815;DHT22;12088;53.078;8.720;2022-11-18T05:24:21;3.90;99.90
23815;DHT22;12088;53.078;8.720;2022-11-18T05:26:49;3.90;99.90
23815;DHT22;12088;53.078;8.720;2022-11-18T05:29:17;3.90;99.90
23815;DHT22;12088;53.078;8.720;2022-11-18T05:31:43;3.90;99.90
23815;DHT22;12088;53.078;8.720;2022-11-18T05:34:09;3.80;99.90
23815;DHT22;12088;53.078;8.720;2022-11-18T05:36:35;3.80;99.90
23815;DHT22;12088;53.078;8.720;2022-11-18T05:39:01;3.80;99.90
23815;DHT22;12088;53.078;8.720;2022-11-18T05:41:26;3.80;99.90
23815;DHT22;12088;53.078;8.720;2022-11-18T05:44:10;3.70;99.90
23815;DHT22;12088;53.078;8.720;2022-11-18T05:46:36;3.70;99.90
23815;DHT22;12088;53.078;8.720;2022-11-18T05:49:02;3.70;99.90
23815;DHT22;12088;53.078;8.720;2022-11-18T05:51:27;3.70;99.90
23815;DHT22;12088;53.078;8.720;2022-11-18T05:53:53;3.60;99.90
23815;DHT22;12088;53.078;8.720;2022-11-18T05:58:52;3.60;99.90
23815;DHT22;12088;53.078;8.720;2022-11-18T06:03:55;3.60;99.90
23815;DHT22;12088;53.078;8.720;2022-11-18T06:06:22;3.70;99.90
23815;DHT22;12088;53.078;8.720;2022-11-18T06:09:04;3.70;99.90
23815;DHT22;12088;53.078;8.720;2022-11-18T06:11:34;3.70;99.90
23815;DHT22;12088;53.078;8.720;2022-11-18T06:16:33;3.70;99.90
23815;DHT22;12088;53.078;8.720;2022-11-18T06:19:01;3.70;99.90
23815;DHT22;12088;53.078;8.720;2022-11-18T06:21:28;3.70;99.90
23815;DHT22;12088;53.078;8.720;2022-11-18T06:23:54;3.70;99.90
23815;DHT22;12088;53.078;8.720;2022-11-18T06:26:20;3.60;99.90
23815;DHT22;12088;53.078;8.720;2022-11-18T06:28:47;3.60;99.90
23815;DHT22;12088;53.078;8.720;2022-11-18T06:31:13;3.60;99.90
23815;DHT22;12088;53.078;8.720;2022-11-18T06:33:41;3.60;99.90
23815;DHT22;12088;53.078;8.720;2022-11-18T06:36:07;3.60;99.90
23815;DHT22;12088;53.078;8.720;2022-11-18T06:38:33;3.60;99.90
23815;DHT22;12088;53.078;8.720;2022-11-18T06:40:59;3.60;99.90
23815;DHT22;12088;53.078;8.720;2022-11-18T06:43:25;3.60;99.90
23815;DHT22;12088;53.078;8.720;2022-11-18T06:46:04;3.70;99.90
23815;DHT22;12088;53.078;8.720;2022-11-18T06:48:50;3.70;99.90
23815;DHT22;12088;53.078;8.720;2022-11-18T06:51:16;3.60;99.90
23815;DHT22;12088;53.078;8.720;2022-11-18T06:53:42;3.70;99.90
23815;DHT22;12088;53.078;8.720;2022-11-18T06:56:10;3.60;99.90
23815;DHT22;12088;53.078;8.720;2022-11-18T06:58:37;3.60;99.90
23815;DHT22;12088;53.078;8.720;2022-11-18T07:01:09;3.60;99.90
23815;DHT22;12088;53.078;8.720;2022-11-18T07:03:36;3.60;99.90
23815;DHT22;12088;53.078;8.720;2022-11-18T07:06:02;3.70;99.90
23815;DHT22;12088;53.078;8.720;2022-11-18T07:08:28;3.60;99.90
23815;DHT22;12088;53.078;8.720;2022-11-18T07:10:53;3.60;99.90
23815;DHT22;12088;53.078;8.720;2022-11-18T07:13:19;3.50;99.90
23815;DHT22;12088;53.078;8.720;2022-11-18T07:15:45;3.60;99.90
23815;DHT22;12088;53.078;8.720;2022-11-18T07:18:10;3.60;99.90
23815;DHT22;12088;53.078;8.720;2022-11-18T07:20:36;3.60;99.90
23815;DHT22;12088;53.078;8.720;2022-11-18T07:23:01;3.60;99.90
23815;DHT22;12088;53.078;8.720;2022-11-18T07:25:27;3.60;99.90
23815;DHT22;12088;53.078;8.720;2022-11-18T07:27:52;3.60;99.90
23815;DHT22;12088;53.078;8.720;2022-11-18T07:30:18;3.60;99.90
23815;DHT22;12088;53.078;8.720;2022-11-18T07:32:43;3.60;99.90
23815;DHT22;12088;53.078;8.720;2022-11-18T07:35:09;3.50;99.90
23815;DHT22;12088;53.078;8.720;2022-11-18T07:37:34;3.50;99.90
23815;DHT22;12088;53.078;8.720;2022-11-18T07:40:00;3.50;99.90
23815;DHT22;12088;53.078;8.720;2022-11-18T07:42:25;3.40;99.90
23815;DHT22;12088;53.078;8.720;2022-11-18T07:44:51;3.50;99.90
23815;DHT22;12088;53.078;8.720;2022-11-18T07:47:16;3.50;99.90
23815;DHT22;12088;53.078;8.720;2022-11-18T07:49:42;3.40;99.90
23815;DHT22;12088;53.078;8.720;2022-11-18T07:52:07;3.40;99.90
23815;DHT22;12088;53.078;8.720;2022-11-18T07:54:33;3.40;99.90
23815;DHT22;12088;53.078;8.720;2022-11-18T07:56:58;3.30;99.90
23815;DHT22;12088;53.078;8.720;2022-11-18T07:59:24;3.30;99.90
23815;DHT22;12088;53.078;8.720;2022-11-18T08:01:49;3.30;99.90
23815;DHT22;12088;53.078;8.720;2022-11-18T08:04:15;3.40;99.90
23815;DHT22;12088;53.078;8.720;2022-11-18T08:06:42;3.30;99.90
23815;DHT22;12088;53.078;8.720;2022-11-18T08:09:08;3.30;99.90
23815;DHT22;12088;53.078;8.720;2022-11-18T08:11:34;3.40;99.90
23815;DHT22;12088;53.078;8.720;2022-11-18T08:13:59;3.40;99.90
23815;DHT22;12088;53.078;8.720;2022-11-18T08:16:26;3.30;99.90
23815;DHT22;12088;53.078;8.720;2022-11-18T08:18:52;3.30;99.90
23815;DHT22;12088;53.078;8.720;2022-11-18T08:21:19;3.30;99.90
23815;DHT22;12088;53.078;8.720;2022-11-18T08:23:52;3.30;99.90
23815;DHT22;12088;53.078;8.720;2022-11-18T08:26:19;3.30;99.90
23815;DHT22;12088;53.078;8.720;2022-11-18T08:28:45;3.30;99.90
23815;DHT22;12088;53.078;8.720;2022-11-18T08:31:22;3.30;99.90
23815;DHT22;12088;53.078;8.720;2022-11-18T08:33:56;3.30;99.90
23815;DHT22;12088;53.078;8.720;2022-11-18T08:36:25;3.30;99.90
23815;DHT22;12088;53.078;8.720;2022-11-18T08:38:51;3.30;99.90
23815;DHT22;12088;53.078;8.720;2022-11-18T08:41:39;3.30;99.90
23815;DHT22;12088;53.078;8.720;2022-11-18T08:44:07;3.40;99.90
23815;DHT22;12088;53.078;8.720;2022-11-18T08:46:32;3.30;99.90
23815;DHT22;12088;53.078;8.720;2022-11-18T08:48:58;3.30;99.90
23815;DHT22;12088;53.078;8.720;2022-11-18T08:51:24;3.30;99.90
23815;DHT22;12088;53.078;8.720;2022-11-18T08:53:50;3.30;99.90
23815;DHT22;12088;53.078;8.720;2022-11-18T08:56:21;3.30;99.90
23815;DHT22;12088;53.078;8.720;2022-11-18T08:58:47;3.30;99.90
23815;DHT22;12088;53.078;8.720;2022-11-18T09:01:13;3.30;99.90
23815;DHT22;12088;53.078;8.720;2022-11-18T09:03:41;3.30;99.90
23815;DHT22;12088;53.078;8.720;2022-11-18T09:06:08;3.40;99.90
23815;DHT22;12088;53.078;8.720;2022-11-18T09:08:34;3.30;99.90
23815;DHT22;12088;53.078;8.720;2022-11-18T09:11:07;3.30;99.90
23815;DHT22;12088;53.078;8.720;2022-11-18T09:13:33;3.40;99.90
23815;DHT22;12088;53.078;8.720;2022-11-18T09:15:59;3.30;99.90
23815;DHT22;12088;53.078;8.720;2022-11-18T09:18:25;3.30;99.90
23815;DHT22;12088;53.078;8.720;2022-11-18T09:20:54;3.40;99.90
23815;DHT22;12088;53.078;8.720;2022-11-18T09:23:20;3.40;99.90
23815;DHT22;12088;53.078;8.720;2022-11-18T09:25:46;3.40;99.90
23815;DHT22;12088;53.078;8.720;2022-11-18T09:28:12;3.30;99.90
23815;DHT22;12088;53.078;8.720;2022-11-18T09:30:37;3.40;99.90
23815;DHT22;12088;53.078;8.720;2022-11-18T09:33:03;3.40;99.90
23815;DHT22;12088;53.078;8.720;2022-11-18T09:35:28;3.50;99.90
23815;DHT22;12088;53.078;8.720;2022-11-18T09:37:54;3.50;99.90
23815;DHT22;12088;53.078;8.720;2022-11-18T09:40:19;3.50;99.90
23815;DHT22;12088;53.078;8.720;2022-11-18T09:42:49;3.40;99.90
23815;DHT22;12088;53.078;8.720;2022-11-18T09:45:39;3.40;99.90
23815;DHT22;12088;53.078;8.720;2022-11-18T09:48:15;3.40;99.90
23815;DHT22;12088;53.078;8.720;2022-11-18T09:50:42;3.40;99.90
23815;DHT22;12088;53.078;8.720;2022-11-18T09:53:21;3.30;99.90
23815;DHT22;12088;53.078;8.720;2022-11-18T09:55:49;3.30;99.90
23815;DHT22;12088;53.078;8.720;2022-11-18T09:58:20;3.30;99.90
23815;DHT22;12088;53.078;8.720;2022-11-18T10:01:13;3.20;99.90
23815;DHT22;12088;53.078;8.720;2022-11-18T10:03:53;3.40;99.90
23815;DHT22;12088;53.078;8.720;2022-11-18T10:06:45;3.30;99.90
23815;DHT22;12088;53.078;8.720;2022-11-18T10:12:31;3.10;99.90
23815;DHT22;12088;53.078;8.720;2022-11-18T10:15:25;3.10;99.90
23815;DHT22;12088;53.078;8.720;2022-11-18T10:20:54;3.10;99.90
23815;DHT22;12088;53.078;8.720;2022-11-18T10:23:30;3.20;99.90
23815;DHT22;12088;53.078;8.720;2022-11-18T10:25:58;3.20;99.90
23815;DHT22;12088;53.078;8.720;2022-11-18T10:28:26;3.20;99.90
23815;DHT22;12088;53.078;8.720;2022-11-18T10:31:06;3.10;99.90
23815;DHT22;12088;53.078;8.720;2022-11-18T10:33:32;3.20;99.90
23815;DHT22;12088;53.078;8.720;2022-11-18T10:36:28;3.10;99.90
23815;DHT22;12088;53.078;8.720;2022-11-18T10:39:15;3.20;99.90
23815;DHT22;12088;53.078;8.720;2022-11-18T10:41:47;3.20;99.90
23815;DHT22;12088;53.078;8.720;2022-11-18T10:46:55;3.20;99.90
23815;DHT22;12088;53.078;8.720;2022-11-18T11:02:13;3.00;99.90
23815;DHT22;12088;53.078;8.720;2022-11-18T11:04:40;2.90;99.90
23815;DHT22;12088;53.078;8.720;2022-11-18T11:07:26;2.90;99.90
23815;DHT22;12088;53.078;8.720;2022-11-18T11:12:24;3.10;99.90
23815;DHT22;12088;53.078;8.720;2022-11-18T11:14:54;3.10;99.90
23815;DHT22;12088;53.078;8.720;2022-11-18T11:17:37;3.10;99.90
23815;DHT22;12088;53.078;8.720;2022-11-18T11:20:16;3.00;99.90
23815;DHT22;12088;53.078;8.720;2022-11-18T11:22:44;3.10;99.90
23815;DHT22;12088;53.078;8.720;2022-11-18T11:25:18;3.10;99.90
23815;DHT22;12088;53.078;8.720;2022-11-18T11:35:46;3.10;99.90
23815;DHT22;12088;53.078;8.720;2022-11-18T11:49:25;3.10;99.90
23815;DHT22;12088;53.078;8.720;2022-11-18T11:52:32;3.10;99.90
23815;DHT22;12088;53.078;8.720;2022-11-18T11:55:05;3.10;99.90
23815;DHT22;12088;53.078;8.720;2022-11-18T12:00:13;3.00;99.90
23815;DHT22;12088;53.078;8.720;2022-11-18T12:05:45;3.10;99.90
23815;DHT22;12088;53.078;8.720;2022-11-18T12:08:29;3.10;99.90
23815;DHT22;12088;53.078;8.720;2022-11-18T12:13:46;3.20;99.90
23815;DHT22;12088;53.078;8.720;2022-11-18T12:27:00;3.20;99.90
23815;DHT22;12088;53.078;8.720;2022-11-18T12:32:41;3.20;99.90
23815;DHT22;12088;53.078;8.720;2022-11-18T12:37:58;3.10;99.90
23815;DHT22;12088;53.078;8.720;2022-11-18T12:46:28;3.10;99.90
23815;DHT22;12088;53.078;8.720;2022-11-18T12:48:55;3.00;99.90
23815;DHT22;12088;53.078;8.720;2022-11-18T12:53:50;3.00;99.90
23815;DHT22;12088;53.078;8.720;2022-11-18T12:56:24;3.00;99.90
23815;DHT22;12088;53.078;8.720;2022-11-18T12:58:56;3.00;99.90
23815;DHT22;12088;53.078;8.720;2022-11-18T13:01:24;3.00;99.90
23815;DHT22;12088;53.078;8.720;2022-11-18T13:03:51;3.00;99.90
23815;DHT22;12088;53.078;8.720;2022-11-18T13:06:24;2.90;99.90
23815;DHT22;12088;53.078;8.720;2022-11-18T13:09:02;2.90;99.90
23815;DHT22;12088;53.078;8.720;2022-11-18T13:11:31;2.80;99.90
23815;DHT22;12088;53.078;8.720;2022-11-18T13:14:32;2.90;99.90
23815;DHT22;12088;53.078;8.720;2022-11-18T13:17:30;2.90;99.90
23815;DHT22;12088;53.078;8.720;2022-11-18T13:22:53;3.00;99.90
23815;DHT22;12088;53.078;8.720;2022-11-18T13:25:38;3.00;99.90
23815;DHT22;12088;53.078;8.720;2022-11-18T13:28:30;3.00;99.90
23815;DHT22;12088;53.078;8.720;2022-11-18T13:33:38;2.80;99.90
23815;DHT22;12088;53.078;8.720;2022-11-18T13:36:24;2.80;99.90
23815;DHT22;12088;53.078;8.720;2022-11-18T13:42:12;2.80;99.90
23815;DHT22;12088;53.078;8.720;2022-11-18T13:44:38;2.90;99.90
23815;DHT22;12088;53.078;8.720;2022-11-18T13:52:53;2.90;99.90
23815;DHT22;12088;53.078;8.720;2022-11-18T13:55:25;2.90;99.90
23815;DHT22;12088;53.078;8.720;2022-11-18T13:58:10;2.80;99.90
23815;DHT22;12088;53.078;8.720;2022-11-18T14:00:54;2.70;99.90
23815;DHT22;12088;53.078;8.720;2022-11-18T14:03:32;2.60;99.90
23815;DHT22;12088;53.078;8.720;2022-11-18T14:06:00;2.50;99.90
23815;DHT22;12088;53.078;8.720;2022-11-18T14:08:37;2.60;99.90
23815;DHT22;12088;53.078;8.720;2022-11-18T14:11:05;2.50;99.90
23815;DHT22;12088;53.078;8.720;2022-11-18T14:13:36;2.50;99.90
23815;DHT22;12088;53.078;8.720;2022-11-18T14:18:45;2.60;99.90
23815;DHT22;12088;53.078;8.720;2022-11-18T14:21:11;2.60;99.90
23815;DHT22;12088;53.078;8.720;2022-11-18T14:23:41;2.60;99.90
23815;DHT22;12088;53.078;8.720;2022-11-18T14:26:08;2.70;99.90
23815;DHT22;12088;53.078;8.720;2022-11-18T14:28:35;2.70;99.90
23815;DHT22;12088;53.078;8.720;2022-11-18T14:31:05;2.60;99.90
23815;DHT22;12088;53.078;8.720;2022-11-18T14:36:47;2.60;99.90
23815;DHT22;12088;53.078;8.720;2022-11-18T14:39:30;2.50;99.90
23815;DHT22;12088;53.078;8.720;2022-11-18T14:41:57;2.50;99.90
23815;DHT22;12088;53.078;8.720;2022-11-18T14:44:25;2.50;99.90
23815;DHT22;12088;53.078;8.720;2022-11-18T14:46:56;2.50;99.90
23815;DHT22;12088;53.078;8.720;2022-11-18T14:49:24;2.40;99.90
23815;DHT22;12088;53.078;8.720;2022-11-18T14:51:50;2.40;99.90
23815;DHT22;12088;53.078;8.720;2022-11-18T14:54:18;2.40;99.90
23815;DHT22;12088;53.078;8.720;2022-11-18T14:56:45;2.30;99.90
23815;DHT22;12088;53.078;8.720;2022-11-18T14:59:12;2.30;99.90
23815;DHT22;12088;53.078;8.720;2022-11-18T15:01:39;2.30;99.90
23815;DHT22;12088;53.078;8.720;2022-11-18T15:04:04;2.30;99.90
23815;DHT22;12088;53.078;8.720;2022-11-18T15:06:30;2.30;99.90
23815;DHT22;12088;53.078;8.720;2022-11-18T15:08:56;2.30;99.90
23815;DHT22;12088;53.078;8.720;2022-11-18T15:11:21;2.30;99.90
23815;DHT22;12088;53.078;8.720;2022-11-18T15:13:47;2.30;99.90
23815;DHT22;12088;53.078;8.720;2022-11-18T15:16:14;2.20;99.90
23815;DHT22;12088;53.078;8.720;2022-11-18T15:18:41;2.20;99.90
23815;DHT22;12088;53.078;8.720;2022-11-18T15:21:07;2.20;99.90
23815;DHT22;12088;53.078;8.720;2022-11-18T15:23:32;2.20;99.90
23815;DHT22;12088;53.078;8.720;2022-11-18T15:25:58;2.20;99.90
23815;DHT22;12088;53.078;8.720;2022-11-18T15:28:23;2.10;99.90
23815;DHT22;12088;53.078;8.720;2022-11-18T15:30:49;2.10;99.90
23815;DHT22;12088;53.078;8.720;2022-11-18T15:33:14;2.10;99.90
23815;DHT22;12088;53.078;8.720;2022-11-18T15:35:40;2.10;99.90
23815;DHT22;12088;53.078;8.720;2022-11-18T15:38:06;2.10;99.90
23815;DHT22;12088;53.078;8.720;2022-11-18T15:40:31;2.10;99.90
23815;DHT22;12088;53.078;8.720;2022-11-18T15:42:57;2.10;99.90
23815;DHT22;12088;53.078;8.720;2022-11-18T15:45:22;2.10;99.90
23815;DHT22;12088;53.078;8.720;2022-11-18T15:47:50;2.00;99.90
23815;DHT22;12088;53.078;8.720;2022-11-18T15:50:16;2.10;99.90
23815;DHT22;12088;53.078;8.720;2022-11-18T15:52:42;2.10;99.90
23815;DHT22;12088;53.078;8.720;2022-11-18T15:55:08;2.10;99.90
23815;DHT22;12088;53.078;8.720;2022-11-18T15:57:33;2.00;99.90
23815;DHT22;12088;53.078;8.720;2022-11-18T15:59:59;2.00;99.90
23815;DHT22;12088;53.078;8.720;2022-11-18T16:02:24;2.00;99.90
23815;DHT22;12088;53.078;8.720;2022-11-18T16:04:50;1.90;99.90
23815;DHT22;12088;53.078;8.720;2022-11-18T16:07:16;1.90;99.90
23815;DHT22;12088;53.078;8.720;2022-11-18T16:09:41;1.90;99.90
23815;DHT22;12088;53.078;8.720;2022-11-18T16:12:25;1.90;99.90
23815;DHT22;12088;53.078;8.720;2022-11-18T16:15:09;1.90;99.90
23815;DHT22;12088;53.078;8.720;2022-11-18T16:17:54;1.90;99.90
23815;DHT22;12088;53.078;8.720;2022-11-18T16:20:20;1.80;99.90
23815;DHT22;12088;53.078;8.720;2022-11-18T16:22:45;1.90;99.90
23815;DHT22;12088;53.078;8.720;2022-11-18T16:25:12;1.90;99.90
23815;DHT22;12088;53.078;8.720;2022-11-18T16:27:37;1.90;99.90
23815;DHT22;12088;53.078;8.720;2022-11-18T16:30:03;1.90;99.90
23815;DHT22;12088;53.078;8.720;2022-11-18T16:32:29;1.90;99.90
23815;DHT22;12088;53.078;8.720;2022-11-18T16:34:55;1.90;99.90
23815;DHT22;12088;53.078;8.720;2022-11-18T16:37:22;1.90;99.90
23815;DHT22;12088;53.078;8.720;2022-11-18T16:39:47;2.00;99.90
23815;DHT22;12088;53.078;8.720;2022-11-18T16:42:13;2.00;99.90
23815;DHT22;12088;53.078;8.720;2022-11-18T16:44:38;2.10;99.90
23815;DHT22;12088;53.078;8.720;2022-11-18T16:47:05;2.00;99.90
23815;DHT22;12088;53.078;8.720;2022-11-18T16:49:31;2.00;99.90
23815;DHT22;12088;53.078;8.720;2022-11-18T16:51:56;2.00;99.90
23815;DHT22;12088;53.078;8.720;2022-11-18T16:54:27;2.00;99.90
23815;DHT22;12088;53.078;8.720;2022-11-18T16:56:55;2.10;99.90
23815;DHT22;12088;53.078;8.720;2022-11-18T16:59:26;2.00;99.90
23815;DHT22;12088;53.078;8.720;2022-11-18T17:01:53;2.10;99.90
23815;DHT22;12088;53.078;8.720;2022-11-18T17:04:20;2.10;99.90
23815;DHT22;12088;53.078;8.720;2022-11-18T17:06:46;2.10;99.90
23815;DHT22;12088;53.078;8.720;2022-11-18T17:09:14;2.10;99.90
23815;DHT22;12088;53.078;8.720;2022-11-18T17:11:40;2.10;99.90
23815;DHT22;12088;53.078;8.720;2022-11-18T17:14:05;2.00;99.90
23815;DHT22;12088;53.078;8.720;2022-11-18T17:16:31;2.10;99.90
23815;DHT22;12088;53.078;8.720;2022-11-18T17:18:58;2.10;99.90
23815;DHT22;12088;53.078;8.720;2022-11-18T17:21:25;2.00;99.90
23815;DHT22;12088;53.078;8.720;2022-11-18T17:23:51;2.10;99.90
23815;DHT22;12088;53.078;8.720;2022-11-18T17:26:19;2.10;99.90
23815;DHT22;12088;53.078;8.720;2022-11-18T17:28:45;2.00;99.90
23815;DHT22;12088;53.078;8.720;2022-11-18T17:31:16;2.00;99.90
23815;DHT22;12088;53.078;8.720;2022-11-18T17:33:42;2.00;99.90
23815;DHT22;12088;53.078;8.720;2022-11-18T17:36:11;2.00;99.90
23815;DHT22;12088;53.078;8.720;2022-11-18T17:38:38;2.00;99.90
23815;DHT22;12088;53.078;8.720;2022-11-18T17:41:07;2.00;99.90
23815;DHT22;12088;53.078;8.720;2022-11-18T17:43:33;2.00;99.90
23815;DHT22;12088;53.078;8.720;2022-11-18T17:46:00;2.00;99.90
23815;DHT22;12088;53.078;8.720;2022-11-18T17:48:28;2.00;99.90
23815;DHT22;12088;53.078;8.720;2022-11-18T17:51:02;2.00;99.90
23815;DHT22;12088;53.078;8.720;2022-11-18T17:53:28;2.00;99.90
23815;DHT22;12088;53.078;8.720;2022-11-18T17:55:53;2.00;99.90
23815;DHT22;12088;53.078;8.720;2022-11-18T17:58:19;2.00;99.90
23815;DHT22;12088;53.078;8.720;2022-11-18T18:00:44;2.00;99.90
23815;DHT22;12088;53.078;8.720;2022-11-18T18:03:10;2.00;99.90
23815;DHT22;12088;53.078;8.720;2022-11-18T18:05:35;2.10;99.90